Heidelberg, Germany
Current Conditions -  °F | °C
As of 8:20 PM on Sunday 21 Dec 2014 (Local Time) from EDFM Reporting Station
Broken Clouds Broken Clouds  
Wind Chill: 43°   Ceiling: 3100
Heat Index: 46°   Visibility: 6mi
Dew Point: 36°   Wind: 7mph
Humidity: 66%   Direction: 220°SW
Pressure: 30.42"   Gusts: NA
Location:  49.4°N, 8.68°E
Report Text: EDFM 211920Z 22006KT 180V260 9999 BKN031 08/02 Q1030
Loading
Personal Weather Stations






























Interactive Weather Map New forecast layout! Learn more

10-Day Weather Forecast

Advertisements
Track Severe Weather on mobile